Time;durP1;ratioP1;P1;durP2;ratioP2;P2;SDS_P1;SDS_P2;PMS_P1;PMS_P2;Temp;Humidity;BMP_temperature;BMP_pressure;BME280_temperature;BME280_humidity;BME280_pressure;Samples;Min_cycle;Max_cycle;Signal;HPM_P1;HPM_P2
2021/03/30 00:02:10;;;;;;;6.90;5.80;;;;;;;;;;4985109;28;20430;-74
2021/03/30 00:04:36;;;;;;;7.50;5.90;;;;;;;;;;4992743;28;20421;-74
2021/03/30 00:07:02;;;;;;;11.63;6.23;;;;;;;;;;4974916;28;20450;-74
2021/03/30 00:09:28;;;;;;;8.43;5.97;;;;;;;;;;4990525;28;20478;-74
2021/03/30 00:11:54;;;;;;;7.43;5.43;;;;;;;;;;4993305;28;20254;-74
2021/03/30 00:14:20;;;;;;;7.30;5.40;;;;;;;;;;4993774;28;22067;-74
2021/03/30 00:16:46;;;;;;;9.83;6.57;;;;;;;;;;4993145;28;20442;-74
2021/03/30 00:19:12;;;;;;;8.47;5.60;;;;;;;;;;4979782;28;20439;-73
2021/03/30 00:21:38;;;;;;;11.73;7.10;;;;;;;;;;4990925;28;20436;-73
2021/03/30 00:24:04;;;;;;;8.60;5.47;;;;;;;;;;4992514;28;20450;-73
2021/03/30 00:26:34;;;;;;;9.98;6.57;;;;;;;;;;4983726;28;20202;-73
2021/03/30 00:29:01;;;;;;;6.95;6.00;;;;;;;;;;5016505;22;20273;-73
2021/03/30 00:31:26;;;;;;;8.02;6.20;;;;;;;;;;5008017;28;20214;-72
2021/03/30 00:33:52;;;;;;;9.00;6.23;;;;;;;;;;5012836;28;20568;-72
2021/03/30 00:36:18;;;;;;;9.30;6.40;;;;;;;;;;5004949;28;20981;-71
2021/03/30 00:38:44;;;;;;;6.17;5.43;;;;;;;;;;5011000;28;20479;-71
2021/03/30 00:41:10;;;;;;;7.90;6.50;;;;;;;;;;5011440;28;20422;-71
2021/03/30 00:43:36;;;;;;;8.90;5.40;;;;;;;;;;5011477;28;20468;-72
2021/03/30 00:46:09;;;;;;;7.67;6.43;;;;;;;;;;5012423;28;20792;-72
2021/03/30 00:48:35;;;;;;;10.65;6.28;;;;;;;;;;5011846;28;20503;-72
2021/03/30 00:51:00;;;;;;;7.97;6.80;;;;;;;;;;5003826;28;20172;-72
2021/03/30 00:53:26;;;;;;;7.97;6.17;;;;;;;;;;5002247;28;20422;-71
2021/03/30 00:55:52;;;;;;;7.57;6.20;;;;;;;;;;5005067;28;21071;-71
2021/03/30 00:58:18;;;;;;;8.63;6.20;;;;;;;;;;5012229;28;20793;-71
2021/03/30 01:00:44;;;;;;;12.30;7.38;;;;;;;;;;5006397;28;20944;-71
2021/03/30 01:03:10;;;;;;;10.00;6.20;;;;;;;;;;5001722;28;20270;-71
2021/03/30 01:05:36;;;;;;;7.28;5.63;;;;;;;;;;5009094;28;20471;-71
2021/03/30 01:08:25;;;;;;;7.70;5.90;;;;;;;;;;5007605;28;20199;-71
2021/03/30 01:10:57;;;;;;;5.78;5.18;;;;;;;;;;4982602;28;20532;-71
2021/03/30 01:13:26;;;;;;;14.32;6.35;;;;;;;;;;5002920;28;20186;-72
2021/03/30 01:16:00;;;;;;;9.77;6.53;;;;;;;;;;5004271;28;20674;-72
2021/03/30 01:18:38;;;;;;;10.77;5.88;;;;;;;;;;5003102;28;20253;-72
2021/03/30 01:21:13;;;;;;;8.63;5.28;;;;;;;;;;5000538;28;20680;-71
2021/03/30 01:23:56;;;;;;;8.93;6.03;;;;;;;;;;5001333;28;20198;-71
2021/03/30 01:26:40;;;;;;;6.90;6.20;;;;;;;;;;5010202;28;20204;-73
2021/03/30 01:29:25;;;;;;;7.38;6.40;;;;;;;;;;5011582;28;20228;-73
2021/03/30 01:31:55;;;;;;;7.93;6.28;;;;;;;;;;5007428;28;20229;-72
2021/03/30 01:34:22;;;;;;;6.55;5.40;;;;;;;;;;5011479;28;20194;-73
2021/03/30 01:36:48;;;;;;;16.35;6.43;;;;;;;;;;5008544;28;20178;-72
2021/03/30 01:39:16;;;;;;;8.25;6.57;;;;;;;;;;5001325;28;20217;-73
2021/03/30 01:41:47;;;;;;;8.73;6.05;;;;;;;;;;4998515;28;20192;-73
2021/03/30 01:44:14;;;;;;;9.05;6.55;;;;;;;;;;5007832;28;20179;-73
2021/03/30 01:46:41;;;;;;;8.30;6.18;;;;;;;;;;5003848;28;20183;-73
2021/03/30 01:49:07;;;;;;;9.48;6.03;;;;;;;;;;5003998;28;20289;-73
2021/03/30 01:51:34;;;;;;;11.57;6.65;;;;;;;;;;5006068;28;20229;-72
2021/03/30 01:54:00;;;;;;;9.30;6.25;;;;;;;;;;5009507;28;20241;-73
2021/03/30 01:56:27;;;;;;;7.47;6.68;;;;;;;;;;5010895;28;20182;-73
2021/03/30 01:58:54;;;;;;;6.45;5.50;;;;;;;;;;4998738;28;20203;-73
2021/03/30 02:01:21;;;;;;;9.25;6.60;;;;;;;;;;5003819;28;20248;-73
2021/03/30 02:03:47;;;;;;;11.48;5.57;;;;;;;;;;5006667;28;20226;-72
2021/03/30 02:06:14;;;;;;;7.70;6.20;;;;;;;;;;5000419;28;20179;-73
2021/03/30 02:08:40;;;;;;;9.40;6.95;;;;;;;;;;4998445;28;20215;-72
2021/03/30 02:11:07;;;;;;;10.05;6.63;;;;;;;;;;5010395;28;20175;-72
2021/03/30 02:16:14;;;;;;;8.02;6.63;;;;;;;;;;5003684;28;20182;-72
2021/03/30 02:18:42;;;;;;;12.70;6.82;;;;;;;;;;5007559;28;20206;-71
2021/03/30 02:21:11;;;;;;;11.65;6.25;;;;;;;;;;5005626;28;20209;-72
2021/03/30 02:23:39;;;;;;;8.20;6.47;;;;;;;;;;5011369;28;20272;-73
2021/03/30 02:26:08;;;;;;;8.75;6.72;;;;;;;;;;5010781;28;20580;-72
2021/03/30 02:28:53;;;;;;;9.07;6.85;;;;;;;;;;5011473;28;20215;-72
2021/03/30 02:31:26;;;;;;;7.70;6.88;;;;;;;;;;5005072;28;20237;-71
2021/03/30 02:33:53;;;;;;;6.60;5.10;;;;;;;;;;5009727;28;20184;-72
2021/03/30 02:36:21;;;;;;;7.63;6.22;;;;;;;;;;5003380;28;20267;-72
2021/03/30 02:38:48;;;;;;;7.20;5.47;;;;;;;;;;5009484;28;20737;-72
2021/03/30 02:41:16;;;;;;;14.75;6.20;;;;;;;;;;5010619;28;20326;-72
2021/03/30 02:43:42;;;;;;;7.47;6.63;;;;;;;;;;5010280;28;20179;-72
2021/03/30 02:46:08;;;;;;;8.15;6.18;;;;;;;;;;5002710;28;20238;-72
2021/03/30 02:48:36;;;;;;;10.00;6.00;;;;;;;;;;5005481;28;20297;-72
2021/03/30 02:51:04;;;;;;;7.65;5.70;;;;;;;;;;5005430;28;20204;-72
2021/03/30 02:53:31;;;;;;;10.07;6.80;;;;;;;;;;4993049;28;20179;-72
2021/03/30 02:55:57;;;;;;;6.80;5.93;;;;;;;;;;5009686;28;20180;-71
2021/03/30 02:58:23;;;;;;;7.53;6.05;;;;;;;;;;5002831;28;20195;-72
2021/03/30 03:00:50;;;;;;;8.00;5.47;;;;;;;;;;5010019;28;20207;-71
2021/03/30 03:03:17;;;;;;;12.55;6.22;;;;;;;;;;5011044;28;20183;-72
2021/03/30 03:05:44;;;;;;;7.15;6.00;;;;;;;;;;5012250;28;20179;-71
2021/03/30 03:08:10;;;;;;;7.80;6.38;;;;;;;;;;5012717;28;20211;-72
2021/03/30 03:10:40;;;;;;;8.02;6.72;;;;;;;;;;5009101;28;20186;-72
2021/03/30 03:13:07;;;;;;;8.27;6.07;;;;;;;;;;5006194;28;20546;-72
2021/03/30 03:15:34;;;;;;;13.05;5.85;;;;;;;;;;5005515;28;20183;-71
2021/03/30 03:18:00;;;;;;;6.80;5.55;;;;;;;;;;5005440;28;20202;-72
2021/03/30 03:20:27;;;;;;;6.32;5.72;;;;;;;;;;5012729;28;20219;-72
2021/03/30 03:22:53;;;;;;;10.98;6.07;;;;;;;;;;4998674;28;20374;-72
2021/03/30 03:25:19;;;;;;;5.93;5.40;;;;;;;;;;5011371;28;20190;-72
2021/03/30 03:27:45;;;;;;;14.90;5.88;;;;;;;;;;5009559;28;20187;-72
2021/03/30 03:30:13;;;;;;;12.70;5.80;;;;;;;;;;5009268;28;20230;-71
2021/03/30 03:32:39;;;;;;;9.30;5.80;;;;;;;;;;5003649;28;20242;-73
2021/03/30 03:35:09;;;;;;;7.55;5.93;;;;;;;;;;5014491;28;20206;-72
2021/03/30 03:37:40;;;;;;;6.10;5.00;;;;;;;;;;5013730;28;20543;-71
2021/03/30 03:40:06;;;;;;;5.70;4.95;;;;;;;;;;5011579;28;20204;-72
2021/03/30 03:42:32;;;;;;;8.27;5.78;;;;;;;;;;5013128;28;20179;-72
2021/03/30 03:45:00;;;;;;;6.40;5.17;;;;;;;;;;5006222;28;20263;-72
2021/03/30 03:47:26;;;;;;;5.15;4.65;;;;;;;;;;4998145;28;20515;-72
2021/03/30 03:49:52;;;;;;;6.60;5.57;;;;;;;;;;5013693;28;20290;-72
2021/03/30 03:52:19;;;;;;;6.80;5.55;;;;;;;;;;5013192;28;20241;-71
2021/03/30 03:54:45;;;;;;;9.05;5.63;;;;;;;;;;5013728;28;20187;-72
2021/03/30 03:57:11;;;;;;;5.85;5.28;;;;;;;;;;5013466;28;20612;-71
2021/03/30 03:59:39;;;;;;;6.93;5.30;;;;;;;;;;5009549;28;20210;-72
2021/03/30 04:02:13;;;;;;;8.73;5.38;;;;;;;;;;5004709;28;20430;-72
2021/03/30 04:04:43;;;;;;;10.25;5.43;;;;;;;;;;5013570;28;20194;-72
2021/03/30 04:07:14;;;;;;;5.63;4.90;;;;;;;;;;5013738;28;20179;-72
2021/03/30 04:09:40;;;;;;;8.00;5.30;;;;;;;;;;5007049;28;20235;-73
2021/03/30 04:12:08;;;;;;;11.02;5.25;;;;;;;;;;5000416;28;20375;-73
2021/03/30 04:14:34;;;;;;;6.90;4.55;;;;;;;;;;5003273;28;20216;-72
2021/03/30 04:17:00;;;;;;;7.00;5.55;;;;;;;;;;5013449;28;20175;-72
2021/03/30 04:19:26;;;;;;;6.35;5.15;;;;;;;;;;5013587;28;20210;-71
2021/03/30 04:21:52;;;;;;;9.47;4.83;;;;;;;;;;5013128;28;20647;-72
2021/03/30 04:24:18;;;;;;;7.83;5.17;;;;;;;;;;5013549;28;20410;-72
2021/03/30 04:26:44;;;;;;;6.00;4.70;;;;;;;;;;5009922;28;20941;-72
2021/03/30 04:29:10;;;;;;;7.20;5.67;;;;;;;;;;5009984;28;20459;-71
2021/03/30 04:31:36;;;;;;;6.50;5.10;;;;;;;;;;5010956;28;20912;-72
2021/03/30 04:34:03;;;;;;;7.90;5.72;;;;;;;;;;5007993;28;20182;-72
2021/03/30 04:36:29;;;;;;;9.07;5.30;;;;;;;;;;5004132;28;20945;-72
2021/03/30 04:38:55;;;;;;;7.00;5.53;;;;;;;;;;5011577;28;20533;-72
2021/03/30 04:41:21;;;;;;;7.90;4.50;;;;;;;;;;5009814;28;20455;-72
2021/03/30 04:43:47;;;;;;;8.82;4.63;;;;;;;;;;5011944;28;20417;-72
2021/03/30 04:46:13;;;;;;;7.30;5.70;;;;;;;;;;5010565;28;20191;-71
2021/03/30 04:48:39;;;;;;;10.73;5.70;;;;;;;;;;5009253;28;20242;-71
2021/03/30 04:51:05;;;;;;;9.93;5.45;;;;;;;;;;5009713;28;20422;-71
2021/03/30 04:53:31;;;;;;;7.28;4.82;;;;;;;;;;5010445;28;20187;-72
2021/03/30 04:55:57;;;;;;;5.78;5.00;;;;;;;;;;5000476;28;20597;-71
2021/03/30 04:58:23;;;;;;;5.70;4.83;;;;;;;;;;5005125;28;20273;-71
2021/03/30 05:00:49;;;;;;;5.67;5.07;;;;;;;;;;5011842;28;20818;-71
2021/03/30 05:03:15;;;;;;;6.68;6.00;;;;;;;;;;5012674;28;20405;-71
2021/03/30 05:05:41;;;;;;;6.70;5.80;;;;;;;;;;5012549;28;20252;-71
2021/03/30 05:08:07;;;;;;;9.13;6.53;;;;;;;;;;5012701;28;20556;-71
2021/03/30 05:10:33;;;;;;;7.13;5.50;;;;;;;;;;5011941;28;20454;-71
2021/03/30 05:12:59;;;;;;;5.97;5.20;;;;;;;;;;5012339;28;20423;-71
2021/03/30 05:15:25;;;;;;;9.00;5.40;;;;;;;;;;5011757;28;20467;-72
2021/03/30 05:17:50;;;;;;;6.30;5.07;;;;;;;;;;5001702;28;20235;-71
2021/03/30 05:20:16;;;;;;;7.23;5.40;;;;;;;;;;5012264;28;20434;-71
2021/03/30 05:22:42;;;;;;;13.13;6.28;;;;;;;;;;5012294;28;20493;-71
2021/03/30 05:25:09;;;;;;;7.40;4.73;;;;;;;;;;5012473;28;20262;-71
2021/03/30 05:27:38;;;;;;;7.55;5.28;;;;;;;;;;5012514;28;20426;-71
2021/03/30 05:30:05;;;;;;;7.57;5.07;;;;;;;;;;5011469;28;20741;-71
2021/03/30 05:32:30;;;;;;;18.00;6.15;;;;;;;;;;5002491;28;20188;-71
2021/03/30 05:34:56;;;;;;;8.43;5.17;;;;;;;;;;5003780;28;20187;-73
2021/03/30 05:37:22;;;;;;;7.07;5.60;;;;;;;;;;5002320;28;20477;-71
2021/03/30 05:39:48;;;;;;;5.57;5.10;;;;;;;;;;5012236;28;20560;-71
2021/03/30 05:42:15;;;;;;;8.93;4.90;;;;;;;;;;5011568;28;20422;-71
2021/03/30 05:44:42;;;;;;;7.38;5.95;;;;;;;;;;5011471;28;20430;-71
2021/03/30 05:47:16;;;;;;;5.82;5.18;;;;;;;;;;5009282;28;20269;-71
2021/03/30 05:49:43;;;;;;;7.68;5.70;;;;;;;;;;5008807;28;20296;-72
2021/03/30 05:52:16;;;;;;;9.15;6.13;;;;;;;;;;5011707;28;20183;-72
2021/03/30 05:54:42;;;;;;;7.57;5.57;;;;;;;;;;5012229;28;20179;-71
2021/03/30 05:57:11;;;;;;;5.53;5.03;;;;;;;;;;5011375;28;20179;-72
2021/03/30 05:59:39;;;;;;;6.55;5.50;;;;;;;;;;5011654;28;20674;-71
2021/03/30 06:02:06;;;;;;;9.80;5.63;;;;;;;;;;5010118;28;20187;-71
2021/03/30 06:04:32;;;;;;;10.27;6.50;;;;;;;;;;5011121;28;20188;-71
2021/03/30 06:06:58;;;;;;;9.90;6.05;;;;;;;;;;5010515;28;20183;-71
2021/03/30 06:09:24;;;;;;;9.27;6.60;;;;;;;;;;5011613;28;20921;-71
2021/03/30 06:11:51;;;;;;;7.68;6.25;;;;;;;;;;5011446;28;20961;-71
2021/03/30 06:14:36;;;;;;;11.25;6.90;;;;;;;;;;5011358;28;20545;-71
2021/03/30 06:17:02;;;;;;;7.22;5.75;;;;;;;;;;5006200;28;20182;-71
2021/03/30 06:19:28;;;;;;;9.65;5.95;;;;;;;;;;5011800;28;20566;-72
2021/03/30 06:22:01;;;;;;;11.47;6.63;;;;;;;;;;5003528;28;20184;-71
2021/03/30 06:24:30;;;;;;;9.10;6.10;;;;;;;;;;5007278;28;20968;-71
2021/03/30 06:27:05;;;;;;;11.73;5.93;;;;;;;;;;5008523;28;20222;-72
2021/03/30 06:29:35;;;;;;;7.63;5.65;;;;;;;;;;5022212;23;20300;-70
2021/03/30 06:32:02;;;;;;;16.13;6.68;;;;;;;;;;5002972;28;20186;-70
2021/03/30 06:34:29;;;;;;;15.15;6.68;;;;;;;;;;5004298;28;20247;-70
2021/03/30 06:36:55;;;;;;;10.18;5.95;;;;;;;;;;5000938;28;20207;-70
2021/03/30 06:39:51;;;;;;;11.27;6.25;;;;;;;;;;4996681;28;20649;-71
2021/03/30 06:42:27;;;;;;;9.40;6.05;;;;;;;;;;4998562;28;20270;-70
2021/03/30 06:44:52;;;;;;;9.38;6.72;;;;;;;;;;5002472;28;20630;-70
2021/03/30 06:47:19;;;;;;;13.40;7.60;;;;;;;;;;5001963;28;20690;-70
2021/03/30 06:49:53;;;;;;;7.43;6.25;;;;;;;;;;5008777;28;20488;-70
2021/03/30 06:52:25;;;;;;;8.57;6.65;;;;;;;;;;5006667;28;20190;-70
2021/03/30 06:54:55;;;;;;;9.15;7.25;;;;;;;;;;5015374;28;20187;-71
2021/03/30 06:57:39;;;;;;;7.78;6.53;;;;;;;;;;5013135;28;20198;-71
2021/03/30 07:00:07;;;;;;;16.83;7.50;;;;;;;;;;5014440;28;20196;-71
2021/03/30 07:02:34;;;;;;;6.80;6.10;;;;;;;;;;5006225;28;20243;-70
2021/03/30 07:05:00;;;;;;;7.40;6.63;;;;;;;;;;5014701;28;20181;-70
2021/03/30 07:07:27;;;;;;;6.30;5.70;;;;;;;;;;5015228;28;20221;-70
2021/03/30 07:09:53;;;;;;;10.45;6.63;;;;;;;;;;5014887;28;20872;-70
2021/03/30 07:12:22;;;;;;;7.15;5.82;;;;;;;;;;5003545;28;20238;-71
2021/03/30 07:14:48;;;;;;;7.03;4.93;;;;;;;;;;4994958;28;20222;-71
2021/03/30 07:17:19;;;;;;;9.37;6.40;;;;;;;;;;4996351;28;20179;-71
2021/03/30 07:19:45;;;;;;;14.32;6.10;;;;;;;;;;5014530;28;20445;-71
2021/03/30 07:22:12;;;;;;;9.48;6.15;;;;;;;;;;5013561;28;20179;-70
2021/03/30 07:24:53;;;;;;;16.58;6.93;;;;;;;;;;5014532;28;20171;-71
2021/03/30 07:27:25;;;;;;;8.45;5.57;;;;;;;;;;5013139;28;20189;-70
2021/03/30 07:29:51;;;;;;;8.13;6.70;;;;;;;;;;5013938;28;20216;-70
2021/03/30 07:32:17;;;;;;;12.13;6.85;;;;;;;;;;5000847;28;20526;-70
2021/03/30 07:34:50;;;;;;;7.53;6.50;;;;;;;;;;5010864;28;20229;-71
2021/03/30 07:37:24;;;;;;;9.73;5.72;;;;;;;;;;5014292;28;20483;-70
2021/03/30 07:39:53;;;;;;;9.93;5.40;;;;;;;;;;5014279;28;20255;-70
2021/03/30 07:42:20;;;;;;;14.02;6.20;;;;;;;;;;5013101;28;20179;-70
2021/03/30 07:44:49;;;;;;;9.55;5.30;;;;;;;;;;5013927;28;20269;-70
2021/03/30 07:47:16;;;;;;;12.35;5.05;;;;;;;;;;5014292;28;20174;-70
2021/03/30 07:49:50;;;;;;;10.63;5.28;;;;;;;;;;5013987;28;20288;-70
2021/03/30 07:52:27;;;;;;;6.88;5.90;;;;;;;;;;5013236;28;20194;-71
2021/03/30 07:55:11;;;;;;;7.18;5.43;;;;;;;;;;4994679;28;20179;-71
2021/03/30 07:57:55;;;;;;;10.40;8.38;;;;;;;;;;5005464;28;20277;-70
2021/03/30 08:00:33;;;;;;;13.93;7.22;;;;;;;;;;5010858;28;20218;-70
2021/03/30 08:03:08;;;;;;;9.60;4.40;;;;;;;;;;5002188;28;20174;-70
2021/03/30 08:05:34;;;;;;;9.98;5.45;;;;;;;;;;5013894;28;20591;-71
2021/03/30 08:08:00;;;;;;;7.53;5.35;;;;;;;;;;5013748;28;20175;-71
2021/03/30 08:10:30;;;;;;;6.85;4.85;;;;;;;;;;5013365;28;20198;-70
2021/03/30 08:13:29;;;;;;;7.47;5.35;;;;;;;;;;5013340;28;20190;-70
2021/03/30 08:15:56;;;;;;;6.70;5.03;;;;;;;;;;4971596;28;20187;-70
2021/03/30 08:18:24;;;;;;;7.35;5.30;;;;;;;;;;5011001;28;20270;-70
2021/03/30 08:21:01;;;;;;;6.00;5.28;;;;;;;;;;5013499;28;20214;-70
2021/03/30 08:23:28;;;;;;;8.43;5.32;;;;;;;;;;5013042;28;20186;-71
2021/03/30 08:25:55;;;;;;;7.63;5.13;;;;;;;;;;4994195;28;20207;-70
2021/03/30 08:28:50;;;;;;;7.22;5.30;;;;;;;;;;5005808;28;20199;-70
2021/03/30 08:31:17;;;;;;;7.13;4.72;;;;;;;;;;5005064;28;20223;-70
2021/03/30 08:33:43;;;;;;;8.95;5.45;;;;;;;;;;5012327;28;20266;-70
2021/03/30 08:36:26;;;;;;;10.02;5.65;;;;;;;;;;4993662;28;20266;-71
2021/03/30 08:38:53;;;;;;;6.95;5.03;;;;;;;;;;4993698;28;20262;-71
2021/03/30 08:41:41;;;;;;;7.88;4.95;;;;;;;;;;4993518;28;20180;-70
2021/03/30 08:44:11;;;;;;;7.07;4.88;;;;;;;;;;4993528;28;20266;-70
2021/03/30 08:46:38;;;;;;;14.25;5.97;;;;;;;;;;4993297;28;20541;-70
2021/03/30 08:49:22;;;;;;;6.05;5.55;;;;;;;;;;5007369;28;20216;-70
2021/03/30 08:51:48;;;;;;;7.53;6.72;;;;;;;;;;4993307;28;20181;-71
2021/03/30 08:54:15;;;;;;;13.52;6.05;;;;;;;;;;5005280;28;20181;-70
2021/03/30 08:56:44;;;;;;;9.20;5.45;;;;;;;;;;5013046;28;20212;-71
2021/03/30 08:59:11;;;;;;;13.07;6.45;;;;;;;;;;5011065;28;20204;-71
2021/03/30 09:01:37;;;;;;;8.20;5.55;;;;;;;;;;5003993;28;20182;-70
2021/03/30 09:04:03;;;;;;;8.70;5.13;;;;;;;;;;5011298;28;20699;-71
2021/03/30 09:06:34;;;;;;;8.30;4.90;;;;;;;;;;4999506;28;20424;-71
2021/03/30 09:09:00;;;;;;;7.17;5.90;;;;;;;;;;5012734;28;20473;-70
2021/03/30 09:11:31;;;;;;;14.33;6.23;;;;;;;;;;5012413;28;20904;-70
2021/03/30 09:13:57;;;;;;;5.00;4.57;;;;;;;;;;5012651;28;20447;-71
2021/03/30 09:16:23;;;;;;;6.97;5.00;;;;;;;;;;5011419;28;20427;-71
2021/03/30 09:18:51;;;;;;;5.20;4.70;;;;;;;;;;5001466;28;20822;-71
2021/03/30 09:21:22;;;;;;;8.63;5.20;;;;;;;;;;4992779;28;20458;-71
2021/03/30 09:23:48;;;;;;;4.77;4.40;;;;;;;;;;4997482;28;20403;-71
2021/03/30 09:26:26;;;;;;;9.77;5.90;;;;;;;;;;4992773;28;20434;-71
2021/03/30 09:28:52;;;;;;;5.13;4.30;;;;;;;;;;4999113;28;20469;-71
2021/03/30 09:31:19;;;;;;;9.43;4.73;;;;;;;;;;5003921;28;20422;-71
2021/03/30 09:33:46;;;;;;;8.77;5.57;;;;;;;;;;5010979;28;20968;-71
2021/03/30 09:36:13;;;;;;;7.67;5.40;;;;;;;;;;5012141;28;20515;-71
2021/03/30 09:38:54;;;;;;;6.80;4.60;;;;;;;;;;5012118;28;20418;-71
2021/03/30 09:41:39;;;;;;;10.03;5.63;;;;;;;;;;5010368;28;20427;-71
2021/03/30 09:44:05;;;;;;;5.60;4.80;;;;;;;;;;5011616;28;20449;-71
2021/03/30 09:46:32;;;;;;;5.07;4.57;;;;;;;;;;5011998;28;20413;-71
2021/03/30 09:48:58;;;;;;;8.67;5.00;;;;;;;;;;5011903;28;20547;-72
2021/03/30 09:51:24;;;;;;;6.50;4.40;;;;;;;;;;5012198;28;20961;-72
2021/03/30 09:53:50;;;;;;;6.50;5.00;;;;;;;;;;5011960;28;20789;-72
2021/03/30 09:56:23;;;;;;;8.67;4.70;;;;;;;;;;5012091;28;20406;-71
2021/03/30 09:58:59;;;;;;;7.83;5.53;;;;;;;;;;5012256;28;20514;-71
2021/03/30 10:01:26;;;;;;;4.97;4.40;;;;;;;;;;4999910;28;20406;-71
2021/03/30 10:03:51;;;;;;;6.93;4.77;;;;;;;;;;5009787;28;20441;-71
2021/03/30 10:06:21;;;;;;;9.33;5.03;;;;;;;;;;4995363;28;20445;-71
2021/03/30 10:08:47;;;;;;;5.53;4.30;;;;;;;;;;5010825;28;20467;-71
2021/03/30 10:11:25;;;;;;;5.93;4.90;;;;;;;;;;5010471;28;20430;-71
2021/03/30 10:13:51;;;;;;;10.67;4.23;;;;;;;;;;5008378;28;20536;-72
2021/03/30 10:16:17;;;;;;;8.73;4.73;;;;;;;;;;5015286;28;20509;-71
2021/03/30 10:18:44;;;;;;;6.40;5.13;;;;;;;;;;5015791;28;20425;-72
2021/03/30 10:21:18;;;;;;;9.63;5.23;;;;;;;;;;5013457;28;20436;-71
2021/03/30 10:23:49;;;;;;;7.33;5.13;;;;;;;;;;5006241;28;20429;-72
2021/03/30 10:26:19;;;;;;;6.23;5.63;;;;;;;;;;5015639;28;20425;-71
2021/03/30 10:28:59;;;;;;;7.20;4.77;;;;;;;;;;5006590;28;20474;-71
2021/03/30 10:31:41;;;;;;;7.23;5.80;;;;;;;;;;5003690;28;20502;-71
2021/03/30 10:34:26;;;;;;;9.30;7.60;;;;;;;;;;5010578;28;20442;-71
2021/03/30 10:36:54;;;;;;;15.60;7.07;;;;;;;;;;4999120;28;20429;-71
2021/03/30 10:39:30;;;;;;;14.27;6.87;;;;;;;;;;5007359;28;20443;-69
2021/03/30 10:42:12;;;;;;;12.03;7.20;;;;;;;;;;5009427;28;20453;-72
2021/03/30 10:44:43;;;;;;;11.80;7.77;;;;;;;;;;5012701;28;20465;-70
2021/03/30 10:47:12;;;;;;;18.33;7.70;;;;;;;;;;5010436;28;20427;-72
2021/03/30 10:49:38;;;;;;;13.90;7.50;;;;;;;;;;5003056;28;20467;-71
2021/03/30 10:52:05;;;;;;;10.77;8.10;;;;;;;;;;5013751;28;20439;-71
2021/03/30 10:54:31;;;;;;;11.57;6.90;;;;;;;;;;5005844;28;20445;-71
2021/03/30 10:56:57;;;;;;;9.90;7.57;;;;;;;;;;5004335;28;20425;-71
2021/03/30 10:59:25;;;;;;;11.83;7.13;;;;;;;;;;5003676;28;20464;-70
2021/03/30 11:01:51;;;;;;;9.50;6.50;;;;;;;;;;5001490;28;20437;-69
2021/03/30 11:04:17;;;;;;;7.70;6.90;;;;;;;;;;5004137;28;20447;-69
2021/03/30 11:06:45;;;;;;;15.17;7.70;;;;;;;;;;5004909;28;20434;-71
2021/03/30 11:09:12;;;;;;;9.17;6.60;;;;;;;;;;5010232;28;20925;-69
2021/03/30 11:11:40;;;;;;;9.63;5.53;;;;;;;;;;5005463;28;20523;-69
2021/03/30 11:14:06;;;;;;;11.23;7.37;;;;;;;;;;5006050;28;20414;-69
2021/03/30 11:16:32;;;;;;;7.90;6.90;;;;;;;;;;5003846;28;20437;-69
2021/03/30 11:18:58;;;;;;;11.23;7.43;;;;;;;;;;5014542;28;20785;-69
2021/03/30 11:21:24;;;;;;;7.70;6.63;;;;;;;;;;5013045;28;20447;-70
2021/03/30 11:23:58;;;;;;;10.80;6.63;;;;;;;;;;5010109;28;20426;-69
2021/03/30 11:26:24;;;;;;;8.23;6.27;;;;;;;;;;5006644;28;20937;-70
2021/03/30 11:28:49;;;;;;;7.23;6.13;;;;;;;;;;5005799;28;20472;-69
2021/03/30 11:31:37;;;;;;;8.13;6.70;;;;;;;;;;5005788;28;20489;-70
2021/03/30 11:34:11;;;;;;;8.00;5.20;;;;;;;;;;5014081;28;20866;-69
2021/03/30 11:36:42;;;;;;;6.73;6.03;;;;;;;;;;5002534;28;20469;-69
2021/03/30 11:39:08;;;;;;;7.07;5.80;;;;;;;;;;5003472;28;20465;-70
2021/03/30 11:41:34;;;;;;;7.60;4.60;;;;;;;;;;5006234;28;20848;-70
2021/03/30 11:44:00;;;;;;;5.40;4.80;;;;;;;;;;4999872;28;20480;-70
2021/03/30 11:46:25;;;;;;;6.30;5.43;;;;;;;;;;5013229;28;20420;-70
2021/03/30 11:48:51;;;;;;;5.77;4.63;;;;;;;;;;5006783;28;20954;-70
2021/03/30 11:51:17;;;;;;;5.97;4.10;;;;;;;;;;5010077;28;20497;-70
2021/03/30 11:53:44;;;;;;;6.43;4.17;;;;;;;;;;5004940;28;20543;-70
2021/03/30 11:56:11;;;;;;;5.37;4.40;;;;;;;;;;5011981;28;20836;-70
2021/03/30 11:58:37;;;;;;;4.43;4.00;;;;;;;;;;5003271;28;20419;-70
2021/03/30 12:01:06;;;;;;;6.20;4.30;;;;;;;;;;5010458;28;20530;-70
2021/03/30 12:03:32;;;;;;;4.30;3.90;;;;;;;;;;5011814;28;20505;-70
2021/03/30 12:05:58;;;;;;;4.70;3.57;;;;;;;;;;5004880;28;20974;-70
2021/03/30 12:08:24;;;;;;;4.33;3.33;;;;;;;;;;5004097;28;20249;-70
2021/03/30 12:10:50;;;;;;;5.03;2.80;;;;;;;;;;5001096;28;20458;-70
2021/03/30 12:13:19;;;;;;;5.40;4.33;;;;;;;;;;5001938;28;20415;-70
2021/03/30 12:15:45;;;;;;;5.17;3.17;;;;;;;;;;5005756;28;20860;-70
2021/03/30 12:18:11;;;;;;;3.30;2.30;;;;;;;;;;5006620;28;20504;-70
2021/03/30 12:20:37;;;;;;;3.13;2.83;;;;;;;;;;5009258;28;20217;-70
2021/03/30 12:23:03;;;;;;;2.77;2.57;;;;;;;;;;5005841;28;20442;-70
2021/03/30 12:25:29;;;;;;;2.83;2.63;;;;;;;;;;4997890;28;20450;-70
2021/03/30 12:27:55;;;;;;;2.93;2.73;;;;;;;;;;5008492;28;20429;-70
2021/03/30 12:30:21;;;;;;;3.70;2.70;;;;;;;;;;5032551;22;20552;-75
2021/03/30 12:32:47;;;;;;;3.43;2.57;;;;;;;;;;5011701;28;20422;-76
2021/03/30 12:35:13;;;;;;;4.00;2.67;;;;;;;;;;5013544;28;20397;-76
2021/03/30 12:37:39;;;;;;;2.97;2.60;;;;;;;;;;5012039;28;20401;-75
2021/03/30 12:40:05;;;;;;;5.37;2.77;;;;;;;;;;5012685;28;20425;-75
2021/03/30 12:42:31;;;;;;;4.50;2.73;;;;;;;;;;4997122;28;20195;-74
2021/03/30 12:44:57;;;;;;;4.27;2.90;;;;;;;;;;4991080;28;20411;-75
2021/03/30 12:47:23;;;;;;;2.60;2.40;;;;;;;;;;4974991;28;20220;-75
2021/03/30 12:49:49;;;;;;;2.17;1.93;;;;;;;;;;4991183;28;20478;-74
2021/03/30 12:52:15;;;;;;;4.17;2.40;;;;;;;;;;4993048;28;20407;-75
2021/03/30 12:54:41;;;;;;;3.17;2.33;;;;;;;;;;4984883;28;20838;-75
2021/03/30 12:57:07;;;;;;;4.37;2.43;;;;;;;;;;4979802;28;20428;-77
2021/03/30 12:59:33;;;;;;;2.70;2.40;;;;;;;;;;4975099;28;20490;-77
2021/03/30 13:01:59;;;;;;;2.47;2.27;;;;;;;;;;4979663;28;20432;-75
2021/03/30 13:04:25;;;;;;;2.57;2.37;;;;;;;;;;4976437;28;20432;-75
2021/03/30 13:06:51;;;;;;;3.67;2.20;;;;;;;;;;4973456;28;20444;-76
2021/03/30 13:09:17;;;;;;;2.30;2.10;;;;;;;;;;4973910;28;20966;-76
2021/03/30 13:11:43;;;;;;;2.53;2.23;;;;;;;;;;4986029;28;20434;-75
2021/03/30 13:14:09;;;;;;;2.53;2.13;;;;;;;;;;4991534;28;20411;-76
2021/03/30 13:16:35;;;;;;;1.80;1.70;;;;;;;;;;4992876;28;20925;-75
2021/03/30 13:19:01;;;;;;;1.97;1.80;;;;;;;;;;4992071;28;20485;-74
2021/03/30 13:21:27;;;;;;;1.83;1.70;;;;;;;;;;4981608;28;20517;-77
2021/03/30 13:23:55;;;;;;;2.03;1.83;;;;;;;;;;4975351;28;20466;-75
2021/03/30 13:26:21;;;;;;;1.90;1.80;;;;;;;;;;4973530;28;20415;-75
2021/03/30 13:28:47;;;;;;;2.50;1.97;;;;;;;;;;4974716;28;20463;-75
2021/03/30 13:31:13;;;;;;;4.37;2.03;;;;;;;;;;4974237;28;20459;-75
2021/03/30 13:33:39;;;;;;;3.33;2.30;;;;;;;;;;4989991;28;20431;-72
2021/03/30 13:36:06;;;;;;;2.40;1.90;;;;;;;;;;4987876;28;20441;-72
2021/03/30 13:38:31;;;;;;;4.63;2.10;;;;;;;;;;4983038;28;20207;-72
2021/03/30 13:40:58;;;;;;;2.90;2.10;;;;;;;;;;4992462;28;20470;-72
2021/03/30 13:43:24;;;;;;;6.60;2.40;;;;;;;;;;4975116;28;20299;-72
2021/03/30 13:45:50;;;;;;;4.37;1.87;;;;;;;;;;4987511;28;20941;-73
2021/03/30 13:48:16;;;;;;;3.77;2.00;;;;;;;;;;4977247;28;20471;-73
2021/03/30 13:50:42;;;;;;;2.90;1.87;;;;;;;;;;4972649;28;20466;-72
2021/03/30 13:53:08;;;;;;;1.67;1.57;;;;;;;;;;4979857;28;20706;-71
2021/03/30 13:55:34;;;;;;;1.97;1.87;;;;;;;;;;4977511;28;20917;-72
2021/03/30 13:58:01;;;;;;;1.83;1.63;;;;;;;;;;4972934;28;20807;-72
2021/03/30 14:00:29;;;;;;;9.13;2.73;;;;;;;;;;4972605;28;20518;-72
2021/03/30 14:02:55;;;;;;;3.00;1.80;;;;;;;;;;4974693;28;20404;-72
2021/03/30 14:05:21;;;;;;;2.27;1.63;;;;;;;;;;4981459;28;20427;-72
2021/03/30 14:07:47;;;;;;;3.10;1.73;;;;;;;;;;4973042;28;20404;-72
2021/03/30 14:10:17;;;;;;;1.53;1.40;;;;;;;;;;4971922;28;21143;-72
2021/03/30 14:13:48;;;;;;;1.47;1.37;;;;;;;;;;4972717;28;20787;-72
2021/03/30 14:18:41;;;;;;;3.23;1.50;;;;;;;;;;4973876;28;20449;-73
2021/03/30 14:21:10;;;;;;;5.17;2.10;;;;;;;;;;4989791;28;20462;-72
2021/03/30 14:23:55;;;;;;;2.37;1.83;;;;;;;;;;4992083;28;20901;-72
2021/03/30 14:26:24;;;;;;;2.07;1.87;;;;;;;;;;4980312;28;20442;-72
2021/03/30 14:28:54;;;;;;;2.77;1.37;;;;;;;;;;4972726;28;20462;-73
2021/03/30 14:31:20;;;;;;;2.87;1.50;;;;;;;;;;4972198;28;20451;-73
2021/03/30 14:33:47;;;;;;;2.37;1.57;;;;;;;;;;4991281;28;20418;-72
2021/03/30 14:36:13;;;;;;;1.57;1.30;;;;;;;;;;4992236;28;20414;-72
2021/03/30 14:38:41;;;;;;;6.10;1.33;;;;;;;;;;4991958;28;20551;-72
2021/03/30 14:41:07;;;;;;;2.07;1.67;;;;;;;;;;4980625;28;20472;-72
2021/03/30 14:43:48;;;;;;;3.00;1.63;;;;;;;;;;4973011;28;20448;-72
2021/03/30 14:53:59;;;;;;;3.50;1.37;;;;;;;;;;4992215;28;20403;-72
2021/03/30 14:56:34;;;;;;;1.63;1.37;;;;;;;;;;4975825;28;20565;-72
2021/03/30 14:59:12;;;;;;;2.27;1.60;;;;;;;;;;4972541;28;20550;-72
2021/03/30 15:02:15;;;;;;;1.53;1.43;;;;;;;;;;4988350;28;20514;-72
2021/03/30 15:04:33;;;;;;;1.80;1.40;;;;;;;;;;4990754;28;20917;-72